Aérodrome :
LOGIN :

S'inscrire | Disclaimer

   EN    FR    IT 

 










Légende :    VFR   VFR Marginal   IFR   IFR Intensif   IFR Très Intensif
Visi : 
Plafond : 
>= 8 km
>= 3000ft
5 à 8 km
1000 à 3000 ft
1500m à 5 km
500 à 1000 ft
800 à 1500m
200 à 500 ft
< 800m
< 200 ft
Symboles :   Orages  Brouillard  Fortes neiges  Fortes précipitations  Vent > 20 kt
SIGMETs :   Divers  Orages  Givrage  Turbulence  Onde Orograph.  Cendres Volcan.







- Altitude de l'aérodrome : 1966 ft
- Code IATA : SGE


EDGS - Siegerland

DERNIER METAR :
  • 191720Z 07002KT 9999 BKN026 11/09 Q1024

METARs EXPIRÉS :
  • 191650Z 08003KT 9999 BKN025 11/08 Q1024
  • 191620Z 10003KT 9999 BKN025 12/09 Q1023
  • 191550Z 09002KT 9999 SCT024 12/09 Q1023
  • 191520Z 08004KT 9999 SCT024 12/09 Q1023
  • 191450Z 07005KT 9999 BKN026 12/09 Q1023

TAF TAF EDGS
Valide du 19 à 18h jusqu'au 20 à 03h UTC


191700Z 1918/2003 05004KT 9999 BKN025
TEMPO 1919/2003 4000 BR BKN012
Pas de NOTAMs connus pour ce terrain.



MET'MAP, la Météo Aéronautique d'un coup d'oeil ! - Copyright ORBIFLY Décembre 2007 - Disclaimer

ORBIFLY MET'MAP TEAM :

Programmation & Développement : Alexandra Zaïnal
Conception & Développement : Baudouin d'Aumeries
Co-Programmation & Développement : Marc-Olivier Méhu
Soutien technique & logistique : Manuel Goepfert

Contact : metmap@orbifly.com




SOURCES & CREDITS :

   NOAA